sensor_id;sensor_type;location;lat;lon;timestamp;pressure;altitude;pressure_sealevel;temperature;humidity
41264;BME280;26998;48.714;9.414;2024-01-27T00:01:25;100594.75;;;1.59;84.22
41264;BME280;26998;48.714;9.414;2024-01-27T00:03:52;100606.25;;;1.56;85.00
41264;BME280;26998;48.714;9.414;2024-01-27T00:06:21;100600.63;;;1.61;84.29
41264;BME280;26998;48.714;9.414;2024-01-27T00:08:48;100612.47;;;1.55;84.90
41264;BME280;26998;48.714;9.414;2024-01-27T00:11:14;100622.38;;;1.61;84.46
41264;BME280;26998;48.714;9.414;2024-01-27T00:13:41;100606.53;;;1.53;84.04
41264;BME280;26998;48.714;9.414;2024-01-27T00:16:09;100613.78;;;1.50;83.90
41264;BME280;26998;48.714;9.414;2024-01-27T00:18:36;100615.38;;;1.41;84.70
41264;BME280;26998;48.714;9.414;2024-01-27T00:21:05;100623.81;;;1.45;84.78
41264;BME280;26998;48.714;9.414;2024-01-27T00:23:33;100590.03;;;1.32;84.31
41264;BME280;26998;48.714;9.414;2024-01-27T00:26:01;100593.97;;;1.27;84.70
41264;BME280;26998;48.714;9.414;2024-01-27T00:28:28;100630.22;;;1.41;85.27
41264;BME280;26998;48.714;9.414;2024-01-27T00:30:54;100630.03;;;1.33;85.36
41264;BME280;26998;48.714;9.414;2024-01-27T00:33:23;100630.75;;;1.35;84.94
41264;BME280;26998;48.714;9.414;2024-01-27T00:35:51;100589.31;;;1.09;85.24
41264;BME280;26998;48.714;9.414;2024-01-27T00:38:28;100638.81;;;1.32;84.71
41264;BME280;26998;48.714;9.414;2024-01-27T00:40:58;100639.19;;;1.27;84.75
41264;BME280;26998;48.714;9.414;2024-01-27T00:43:28;100631.09;;;1.09;84.43
41264;BME280;26998;48.714;9.414;2024-01-27T00:45:55;100588.16;;;0.71;84.80
41264;BME280;26998;48.714;9.414;2024-01-27T00:48:22;100624.09;;;0.78;85.63
41264;BME280;26998;48.714;9.414;2024-01-27T00:50:49;100651.06;;;0.99;85.01
41264;BME280;26998;48.714;9.414;2024-01-27T00:53:24;100615.59;;;0.65;85.29
41264;BME280;26998;48.714;9.414;2024-01-27T00:55:50;100589.28;;;0.57;85.72
41264;BME280;26998;48.714;9.414;2024-01-27T00:58:17;100649.06;;;0.92;86.12
41264;BME280;26998;48.714;9.414;2024-01-27T01:00:45;100648.63;;;0.87;85.60
41264;BME280;26998;48.714;9.414;2024-01-27T01:03:13;100642.56;;;0.86;85.36
41264;BME280;26998;48.714;9.414;2024-01-27T01:05:40;100652.66;;;0.91;84.78
41264;BME280;26998;48.714;9.414;2024-01-27T01:08:09;100651.69;;;0.92;85.29
41264;BME280;26998;48.714;9.414;2024-01-27T01:10:36;100608.31;;;0.48;85.61
41264;BME280;26998;48.714;9.414;2024-01-27T01:13:05;100641.44;;;0.68;85.60
41264;BME280;26998;48.714;9.414;2024-01-27T01:15:34;100610.66;;;0.40;85.60
41264;BME280;26998;48.714;9.414;2024-01-27T01:18:02;100631.78;;;0.48;85.68
41264;BME280;26998;48.714;9.414;2024-01-27T01:20:30;100671.09;;;0.67;85.85
41264;BME280;26998;48.714;9.414;2024-01-27T01:22:59;100597.22;;;0.24;84.87
41264;BME280;26998;48.714;9.414;2024-01-27T01:25:25;100670.41;;;0.54;86.85
41264;BME280;26998;48.714;9.414;2024-01-27T01:27:52;100654.75;;;0.43;86.90
41264;BME280;26998;48.714;9.414;2024-01-27T01:30:19;100677.03;;;0.58;86.25
41264;BME280;26998;48.714;9.414;2024-01-27T01:32:46;100682.13;;;0.49;86.40
41264;BME280;26998;48.714;9.414;2024-01-27T01:35:14;100673.97;;;0.53;85.64
41264;BME280;26998;48.714;9.414;2024-01-27T01:37:40;100680.38;;;0.49;86.10
41264;BME280;26998;48.714;9.414;2024-01-27T01:40:09;100632.75;;;0.14;86.74
41264;BME280;26998;48.714;9.414;2024-01-27T01:42:35;100678.47;;;0.40;86.83
41264;BME280;26998;48.714;9.414;2024-01-27T01:45:02;100628.28;;;0.05;86.95
41264;BME280;26998;48.714;9.414;2024-01-27T01:47:29;100657.72;;;0.28;86.12
41264;BME280;26998;48.714;9.414;2024-01-27T01:49:56;100636.31;;;0.13;86.40
41264;BME280;26998;48.714;9.414;2024-01-27T01:52:23;100669.72;;;0.30;86.38
41264;BME280;26998;48.714;9.414;2024-01-27T01:54:52;100661.56;;;0.24;86.77
41264;BME280;26998;48.714;9.414;2024-01-27T01:57:20;100669.72;;;0.19;87.04
41264;BME280;26998;48.714;9.414;2024-01-27T01:59:51;100669.34;;;0.13;86.94
41264;BME280;26998;48.714;9.414;2024-01-27T02:02:18;100677.66;;;0.18;86.94
41264;BME280;26998;48.714;9.414;2024-01-27T02:04:45;100663.56;;;0.09;86.60
41264;BME280;26998;48.714;9.414;2024-01-27T02:07:13;100677.31;;;0.11;87.32
41264;BME280;26998;48.714;9.414;2024-01-27T02:09:41;100683.22;;;0.02;86.94
41264;BME280;26998;48.714;9.414;2024-01-27T02:12:07;100683.94;;;0.04;87.83
41264;BME280;26998;48.714;9.414;2024-01-27T02:14:35;100656.91;;;-0.17;87.83
41264;BME280;26998;48.714;9.414;2024-01-27T02:17:03;100664.50;;;-0.14;87.98
41264;BME280;26998;48.714;9.414;2024-01-27T02:19:31;100686.78;;;0.01;87.08
41264;BME280;26998;48.714;9.414;2024-01-27T02:21:58;100717.59;;;0.18;86.95
41264;BME280;26998;48.714;9.414;2024-01-27T02:24:26;100721.84;;;0.19;87.62
41264;BME280;26998;48.714;9.414;2024-01-27T02:26:55;100718.28;;;0.09;87.06
41264;BME280;26998;48.714;9.414;2024-01-27T02:29:22;100724.22;;;0.11;87.99
41264;BME280;26998;48.714;9.414;2024-01-27T02:31:51;100729.31;;;0.13;86.88
41264;BME280;26998;48.714;9.414;2024-01-27T02:34:18;100728.72;;;0.09;87.36
41264;BME280;26998;48.714;9.414;2024-01-27T02:36:45;100743.88;;;0.04;87.87
41264;BME280;26998;48.714;9.414;2024-01-27T02:39:12;100713.41;;;-0.18;87.40
41264;BME280;26998;48.714;9.414;2024-01-27T02:41:40;100746.59;;;0.03;86.81
41264;BME280;26998;48.714;9.414;2024-01-27T02:44:07;100724.63;;;-0.17;86.87
41264;BME280;26998;48.714;9.414;2024-01-27T02:46:34;100736.38;;;-0.12;87.33
41264;BME280;26998;48.714;9.414;2024-01-27T02:49:01;100724.44;;;-0.14;86.35
41264;BME280;26998;48.714;9.414;2024-01-27T02:51:28;100745.88;;;-0.11;87.14
41264;BME280;26998;48.714;9.414;2024-01-27T02:53:57;100757.94;;;-0.10;87.66
41264;BME280;26998;48.714;9.414;2024-01-27T02:56:24;100735.97;;;-0.29;87.20
41264;BME280;26998;48.714;9.414;2024-01-27T02:58:51;100718.16;;;-0.46;87.38
41264;BME280;26998;48.714;9.414;2024-01-27T03:01:18;100757.81;;;-0.19;87.06
41264;BME280;26998;48.714;9.414;2024-01-27T03:03:45;100744.25;;;-0.35;87.57
41264;BME280;26998;48.714;9.414;2024-01-27T03:06:12;100711.97;;;-0.56;87.21
41264;BME280;26998;48.714;9.414;2024-01-27T03:08:39;100708.78;;;-0.60;88.32
41264;BME280;26998;48.714;9.414;2024-01-27T03:11:06;100755.41;;;-0.33;87.47
41264;BME280;26998;48.714;9.414;2024-01-27T03:13:32;100756.06;;;-0.42;87.74
41264;BME280;26998;48.714;9.414;2024-01-27T03:15:59;100773.44;;;-0.19;86.62
41264;BME280;26998;48.714;9.414;2024-01-27T03:18:29;100783.81;;;-0.30;87.62
41264;BME280;26998;48.714;9.414;2024-01-27T03:20:57;100748.38;;;-0.44;87.42
41264;BME280;26998;48.714;9.414;2024-01-27T03:23:25;100705.25;;;-0.82;87.35
41264;BME280;26998;48.714;9.414;2024-01-27T03:25:52;100758.41;;;-0.50;87.92
41264;BME280;26998;48.714;9.414;2024-01-27T03:28:20;100721.16;;;-0.74;88.35
41264;BME280;26998;48.714;9.414;2024-01-27T03:30:47;100753.41;;;-0.53;88.28
41264;BME280;26998;48.714;9.414;2024-01-27T03:33:15;100766.72;;;-0.45;87.94
41264;BME280;26998;48.714;9.414;2024-01-27T03:35:46;100734.56;;;-0.68;87.68
41264;BME280;26998;48.714;9.414;2024-01-27T03:38:13;100770.41;;;-0.37;87.33
41264;BME280;26998;48.714;9.414;2024-01-27T03:40:42;100787.47;;;-0.33;87.05
41264;BME280;26998;48.714;9.414;2024-01-27T03:43:09;100769.03;;;-0.53;87.11
41264;BME280;26998;48.714;9.414;2024-01-27T03:45:36;100774.47;;;-0.56;87.96
41264;BME280;26998;48.714;9.414;2024-01-27T03:48:03;100792.28;;;-0.50;88.28
41264;BME280;26998;48.714;9.414;2024-01-27T03:50:30;100764.19;;;-0.81;88.79
41264;BME280;26998;48.714;9.414;2024-01-27T03:52:58;100755.97;;;-0.88;88.45
41264;BME280;26998;48.714;9.414;2024-01-27T03:55:25;100796.97;;;-0.55;88.06
41264;BME280;26998;48.714;9.414;2024-01-27T03:57:52;100791.81;;;-0.68;88.14
41264;BME280;26998;48.714;9.414;2024-01-27T04:00:21;100795.75;;;-0.62;87.83
41264;BME280;26998;48.714;9.414;2024-01-27T04:02:48;100804.72;;;-0.66;88.29
41264;BME280;26998;48.714;9.414;2024-01-27T04:05:15;100780.72;;;-0.82;88.11
41264;BME280;26998;48.714;9.414;2024-01-27T04:07:41;100791.84;;;-0.80;88.46
41264;BME280;26998;48.714;9.414;2024-01-27T04:10:09;100804.75;;;-0.79;89.03
41264;BME280;26998;48.714;9.414;2024-01-27T04:12:36;100760.72;;;-1.05;88.90
41264;BME280;26998;48.714;9.414;2024-01-27T04:15:03;100806.63;;;-0.81;88.80
41264;BME280;26998;48.714;9.414;2024-01-27T04:17:30;100801.66;;;-0.84;88.61
41264;BME280;26998;48.714;9.414;2024-01-27T04:19:57;100762.91;;;-1.12;88.56
41264;BME280;26998;48.714;9.414;2024-01-27T04:22:23;100801.88;;;-0.87;88.74
41264;BME280;26998;48.714;9.414;2024-01-27T04:24:53;100788.25;;;-0.90;88.35
41264;BME280;26998;48.714;9.414;2024-01-27T04:27:22;100807.59;;;-0.82;88.71
41264;BME280;26998;48.714;9.414;2024-01-27T04:29:49;100811.16;;;-0.83;88.36
41264;BME280;26998;48.714;9.414;2024-01-27T04:32:17;100777.03;;;-1.03;88.27
41264;BME280;26998;48.714;9.414;2024-01-27T04:34:44;100794.50;;;-0.93;88.79
41264;BME280;26998;48.714;9.414;2024-01-27T04:37:11;100794.38;;;-0.91;88.81
41264;BME280;26998;48.714;9.414;2024-01-27T04:39:38;100811.03;;;-0.81;89.47
41264;BME280;26998;48.714;9.414;2024-01-27T04:42:06;100800.00;;;-0.85;88.68
41264;BME280;26998;48.714;9.414;2024-01-27T04:44:33;100781.22;;;-1.01;89.35
41264;BME280;26998;48.714;9.414;2024-01-27T04:47:00;100798.66;;;-0.90;88.69
41264;BME280;26998;48.714;9.414;2024-01-27T04:49:27;100823.72;;;-0.77;88.61
41264;BME280;26998;48.714;9.414;2024-01-27T04:51:54;100814.56;;;-0.82;88.66
41264;BME280;26998;48.714;9.414;2024-01-27T04:54:23;100804.59;;;-0.88;88.35
41264;BME280;26998;48.714;9.414;2024-01-27T04:56:50;100805.66;;;-1.03;88.22
41264;BME280;26998;48.714;9.414;2024-01-27T04:59:17;100813.56;;;-1.05;88.58
41264;BME280;26998;48.714;9.414;2024-01-27T05:01:45;100792.59;;;-1.14;88.55
41264;BME280;26998;48.714;9.414;2024-01-27T05:04:13;100813.28;;;-1.00;89.13
41264;BME280;26998;48.714;9.414;2024-01-27T05:06:44;100809.81;;;-1.01;88.79
41264;BME280;26998;48.714;9.414;2024-01-27T05:09:12;100799.66;;;-1.04;89.13
41264;BME280;26998;48.714;9.414;2024-01-27T05:11:39;100771.38;;;-1.21;88.67
41264;BME280;26998;48.714;9.414;2024-01-27T05:14:06;100819.25;;;-0.87;88.88
41264;BME280;26998;48.714;9.414;2024-01-27T05:16:33;100822.69;;;-0.87;88.24
41264;BME280;26998;48.714;9.414;2024-01-27T05:19:01;100810.56;;;-0.99;88.30
41264;BME280;26998;48.714;9.414;2024-01-27T05:21:28;100819.41;;;-1.01;88.71
41264;BME280;26998;48.714;9.414;2024-01-27T05:23:55;100823.88;;;-1.03;88.85
41264;BME280;26998;48.714;9.414;2024-01-27T05:26:24;100833.13;;;-0.99;88.95
41264;BME280;26998;48.714;9.414;2024-01-27T05:28:50;100826.91;;;-0.97;88.70
41264;BME280;26998;48.714;9.414;2024-01-27T05:31:17;100811.91;;;-1.06;88.51
41264;BME280;26998;48.714;9.414;2024-01-27T05:33:45;100823.97;;;-1.05;89.10
41264;BME280;26998;48.714;9.414;2024-01-27T05:36:13;100807.88;;;-1.10;88.61
41264;BME280;26998;48.714;9.414;2024-01-27T05:38:39;100821.38;;;-1.05;89.10
41264;BME280;26998;48.714;9.414;2024-01-27T05:41:06;100826.47;;;-1.03;88.80
41264;BME280;26998;48.714;9.414;2024-01-27T05:43:33;100805.91;;;-1.19;88.98
41264;BME280;26998;48.714;9.414;2024-01-27T05:46:01;100828.16;;;-1.15;88.94
41264;BME280;26998;48.714;9.414;2024-01-27T05:48:28;100845.13;;;-1.09;88.97
41264;BME280;26998;48.714;9.414;2024-01-27T05:50:56;100815.72;;;-1.23;89.10
41264;BME280;26998;48.714;9.414;2024-01-27T05:53:24;100817.03;;;-1.17;89.11
41264;BME280;26998;48.714;9.414;2024-01-27T05:55:51;100795.44;;;-1.30;88.58
41264;BME280;26998;48.714;9.414;2024-01-27T05:58:20;100808.41;;;-1.17;88.38
41264;BME280;26998;48.714;9.414;2024-01-27T06:00:48;100784.78;;;-1.14;87.23
41264;BME280;26998;48.714;9.414;2024-01-27T06:03:16;100801.56;;;-1.31;87.88
41264;BME280;26998;48.714;9.414;2024-01-27T06:05:44;100834.84;;;-1.24;87.80
41264;BME280;26998;48.714;9.414;2024-01-27T06:08:11;100832.84;;;-1.20;87.62
41264;BME280;26998;48.714;9.414;2024-01-27T06:10:41;100810.94;;;-1.41;88.17
41264;BME280;26998;48.714;9.414;2024-01-27T06:13:08;100816.34;;;-1.44;89.43
41264;BME280;26998;48.714;9.414;2024-01-27T06:15:37;100835.47;;;-1.33;87.85
41264;BME280;26998;48.714;9.414;2024-01-27T06:18:06;100839.22;;;-1.37;88.38
41264;BME280;26998;48.714;9.414;2024-01-27T06:20:33;100836.94;;;-1.41;88.15
41264;BME280;26998;48.714;9.414;2024-01-27T06:23:00;100824.38;;;-1.47;88.66
41264;BME280;26998;48.714;9.414;2024-01-27T06:25:26;100829.56;;;-1.47;88.70
41264;BME280;26998;48.714;9.414;2024-01-27T06:28:02;100840.78;;;-1.34;88.27
41264;BME280;26998;48.714;9.414;2024-01-27T06:30:29;100843.38;;;-1.47;88.45
41264;BME280;26998;48.714;9.414;2024-01-27T06:32:56;100810.84;;;-1.65;87.81
41264;BME280;26998;48.714;9.414;2024-01-27T06:35:23;100847.66;;;-1.46;88.53
41264;BME280;26998;48.714;9.414;2024-01-27T06:37:50;100852.44;;;-1.52;88.18
41264;BME280;26998;48.714;9.414;2024-01-27T06:40:22;100843.28;;;-1.58;88.29
41264;BME280;26998;48.714;9.414;2024-01-27T06:42:49;100858.03;;;-1.58;87.83
41264;BME280;26998;48.714;9.414;2024-01-27T06:45:17;100817.09;;;-1.80;88.18
41264;BME280;26998;48.714;9.414;2024-01-27T06:47:44;100869.19;;;-1.44;87.46
41264;BME280;26998;48.714;9.414;2024-01-27T06:50:11;100884.66;;;-1.55;87.85
41264;BME280;26998;48.714;9.414;2024-01-27T06:52:38;100881.66;;;-1.61;88.46
41264;BME280;26998;48.714;9.414;2024-01-27T06:55:05;100859.50;;;-1.54;88.19
41264;BME280;26998;48.714;9.414;2024-01-27T06:57:33;100862.41;;;-1.59;87.60
41264;BME280;26998;48.714;9.414;2024-01-27T07:00:00;100835.88;;;-1.89;88.27
41264;BME280;26998;48.714;9.414;2024-01-27T07:02:28;100875.59;;;-1.62;87.74
41264;BME280;26998;48.714;9.414;2024-01-27T07:04:55;100875.50;;;-1.60;87.49
41264;BME280;26998;48.714;9.414;2024-01-27T07:07:25;100864.16;;;-1.72;87.68
41264;BME280;26998;48.714;9.414;2024-01-27T07:09:54;100867.78;;;-1.74;88.50
41264;BME280;26998;48.714;9.414;2024-01-27T07:12:22;100877.06;;;-1.70;88.55
41264;BME280;26998;48.714;9.414;2024-01-27T07:14:49;100865.72;;;-1.82;88.48
41264;BME280;26998;48.714;9.414;2024-01-27T07:17:22;100867.09;;;-1.76;88.98
41264;BME280;26998;48.714;9.414;2024-01-27T07:19:49;100863.78;;;-1.41;87.97
41264;BME280;26998;48.714;9.414;2024-01-27T07:22:16;100875.09;;;-1.29;86.72
41264;BME280;26998;48.714;9.414;2024-01-27T07:24:43;100878.44;;;-1.52;87.89
41264;BME280;26998;48.714;9.414;2024-01-27T07:27:12;100839.75;;;-1.57;88.10
41264;BME280;26998;48.714;9.414;2024-01-27T07:29:40;100870.44;;;-1.37;87.85
41264;BME280;26998;48.714;9.414;2024-01-27T07:32:08;100880.19;;;-1.28;87.56
41264;BME280;26998;48.714;9.414;2024-01-27T07:34:41;100869.16;;;-1.19;87.42
41264;BME280;26998;48.714;9.414;2024-01-27T07:37:08;100874.75;;;-0.99;86.45
41264;BME280;26998;48.714;9.414;2024-01-27T07:39:35;100875.16;;;-0.80;85.18
41264;BME280;26998;48.714;9.414;2024-01-27T07:42:02;100844.38;;;-0.99;85.02
41264;BME280;26998;48.714;9.414;2024-01-27T07:44:31;100878.75;;;-0.70;84.32
41264;BME280;26998;48.714;9.414;2024-01-27T07:46:58;100871.50;;;-0.78;84.28
41264;BME280;26998;48.714;9.414;2024-01-27T07:49:26;100874.91;;;-0.65;83.74
41264;BME280;26998;48.714;9.414;2024-01-27T07:51:53;100862.41;;;-0.72;83.16
41264;BME280;26998;48.714;9.414;2024-01-27T07:54:24;100868.69;;;-0.51;83.29
41264;BME280;26998;48.714;9.414;2024-01-27T07:56:51;100884.19;;;-0.37;83.34
41264;BME280;26998;48.714;9.414;2024-01-27T07:59:19;100829.75;;;-0.53;82.32
41264;BME280;26998;48.714;9.414;2024-01-27T08:01:47;100873.94;;;-0.28;82.61
41264;BME280;26998;48.714;9.414;2024-01-27T08:04:15;100875.09;;;-0.08;81.82
41264;BME280;26998;48.714;9.414;2024-01-27T08:06:50;100881.81;;;0.18;81.29
41264;BME280;26998;48.714;9.414;2024-01-27T08:09:18;100863.69;;;0.28;80.52
41264;BME280;26998;48.714;9.414;2024-01-27T08:11:45;100846.28;;;0.17;80.21
41264;BME280;26998;48.714;9.414;2024-01-27T08:14:12;100864.16;;;0.22;79.70
41264;BME280;26998;48.714;9.414;2024-01-27T08:16:39;100863.63;;;0.40;78.91
41264;BME280;26998;48.714;9.414;2024-01-27T08:19:08;100867.91;;;0.41;79.40
41264;BME280;26998;48.714;9.414;2024-01-27T08:21:35;100838.75;;;0.47;78.87
41264;BME280;26998;48.714;9.414;2024-01-27T08:24:04;100886.09;;;1.09;78.68
41264;BME280;26998;48.714;9.414;2024-01-27T08:26:51;100885.03;;;1.34;77.47
41264;BME280;26998;48.714;9.414;2024-01-27T08:29:37;100882.16;;;1.37;76.69
41264;BME280;26998;48.714;9.414;2024-01-27T08:32:05;100884.03;;;1.57;76.33
41264;BME280;26998;48.714;9.414;2024-01-27T08:34:32;100846.06;;;1.42;75.53
41264;BME280;26998;48.714;9.414;2024-01-27T08:37:01;100838.94;;;1.44;75.68
41264;BME280;26998;48.714;9.414;2024-01-27T08:39:31;100871.34;;;1.95;74.80
41264;BME280;26998;48.714;9.414;2024-01-27T08:41:58;100869.63;;;2.05;74.22
41264;BME280;26998;48.714;9.414;2024-01-27T08:44:25;100877.94;;;2.30;72.87
41264;BME280;26998;48.714;9.414;2024-01-27T08:46:55;100876.50;;;2.68;72.43
41264;BME280;26998;48.714;9.414;2024-01-27T08:49:27;100869.06;;;2.22;74.11
41264;BME280;26998;48.714;9.414;2024-01-27T08:51:56;100865.94;;;2.69;73.37
41264;BME280;26998;48.714;9.414;2024-01-27T08:54:23;100862.50;;;2.78;72.36
41264;BME280;26998;48.714;9.414;2024-01-27T08:56:51;100839.44;;;2.42;73.44
41264;BME280;26998;48.714;9.414;2024-01-27T08:59:18;100833.78;;;2.37;74.72
41264;BME280;26998;48.714;9.414;2024-01-27T09:01:46;100850.22;;;2.49;74.40
41264;BME280;26998;48.714;9.414;2024-01-27T09:04:14;100865.84;;;2.80;73.58
41264;BME280;26998;48.714;9.414;2024-01-27T09:06:42;100833.47;;;2.81;73.13
41264;BME280;26998;48.714;9.414;2024-01-27T09:09:09;100846.44;;;2.83;74.29
41264;BME280;26998;48.714;9.414;2024-01-27T09:11:35;100827.78;;;3.06;73.21
41264;BME280;26998;48.714;9.414;2024-01-27T09:14:03;100850.78;;;3.12;72.36
41264;BME280;26998;48.714;9.414;2024-01-27T09:16:34;100838.38;;;3.73;71.91
41264;BME280;26998;48.714;9.414;2024-01-27T09:19:01;100838.53;;;3.81;70.80
41264;BME280;26998;48.714;9.414;2024-01-27T09:21:28;100847.47;;;3.60;72.47
41264;BME280;26998;48.714;9.414;2024-01-27T09:23:58;100846.09;;;3.75;71.85
41264;BME280;26998;48.714;9.414;2024-01-27T09:26:25;100857.59;;;4.12;70.17
41264;BME280;26998;48.714;9.414;2024-01-27T09:28:52;100854.50;;;4.35;68.21
41264;BME280;26998;48.714;9.414;2024-01-27T09:31:22;100857.59;;;4.77;67.93
41264;BME280;26998;48.714;9.414;2024-01-27T09:33:51;100815.25;;;4.53;67.65
41264;BME280;26998;48.714;9.414;2024-01-27T09:36:21;100856.72;;;4.49;68.51
41264;BME280;26998;48.714;9.414;2024-01-27T09:38:48;100850.94;;;4.27;69.69
41264;BME280;26998;48.714;9.414;2024-01-27T09:41:15;100857.28;;;4.34;69.69
41264;BME280;26998;48.714;9.414;2024-01-27T09:43:45;100825.16;;;4.68;68.61
41264;BME280;26998;48.714;9.414;2024-01-27T09:46:13;100869.63;;;4.80;68.14
41264;BME280;26998;48.714;9.414;2024-01-27T09:48:40;100864.75;;;5.21;67.34
41264;BME280;26998;48.714;9.414;2024-01-27T09:51:11;100867.88;;;5.34;66.33
41264;BME280;26998;48.714;9.414;2024-01-27T09:53:38;100840.44;;;6.17;61.94
41264;BME280;26998;48.714;9.414;2024-01-27T09:56:06;100879.47;;;6.39;61.34
41264;BME280;26998;48.714;9.414;2024-01-27T09:58:33;100848.13;;;6.10;62.16
41264;BME280;26998;48.714;9.414;2024-01-27T10:01:02;100871.97;;;6.09;62.08
41264;BME280;26998;48.714;9.414;2024-01-27T10:03:30;100869.28;;;5.73;63.61
41264;BME280;26998;48.714;9.414;2024-01-27T10:05:57;100881.66;;;6.08;64.50
41264;BME280;26998;48.714;9.414;2024-01-27T10:08:25;100847.94;;;6.47;62.75
41264;BME280;26998;48.714;9.414;2024-01-27T10:10:56;100844.28;;;6.99;59.74
41264;BME280;26998;48.714;9.414;2024-01-27T10:13:27;100899.59;;;6.91;59.58
41264;BME280;26998;48.714;9.414;2024-01-27T10:16:07;100860.81;;;7.09;59.62
41264;BME280;26998;48.714;9.414;2024-01-27T10:18:38;100907.66;;;7.23;59.63
41264;BME280;26998;48.714;9.414;2024-01-27T10:21:18;100899.13;;;7.29;59.83
41264;BME280;26998;48.714;9.414;2024-01-27T10:23:49;100898.25;;;7.54;58.18
41264;BME280;26998;48.714;9.414;2024-01-27T10:26:16;100894.59;;;7.47;57.51
41264;BME280;26998;48.714;9.414;2024-01-27T10:28:57;100881.47;;;7.22;58.75
41264;BME280;26998;48.714;9.414;2024-01-27T10:31:28;100896.63;;;7.61;57.01
41264;BME280;26998;48.714;9.414;2024-01-27T10:33:56;100898.59;;;7.59;59.44
41264;BME280;26998;48.714;9.414;2024-01-27T10:36:24;100897.72;;;7.09;61.39
41264;BME280;26998;48.714;9.414;2024-01-27T10:38:56;100866.25;;;6.56;62.82
41264;BME280;26998;48.714;9.414;2024-01-27T10:41:25;100887.59;;;6.45;64.43
41264;BME280;26998;48.714;9.414;2024-01-27T10:43:53;100884.00;;;6.72;62.45
41264;BME280;26998;48.714;9.414;2024-01-27T10:46:24;100875.56;;;6.94;61.76
41264;BME280;26998;48.714;9.414;2024-01-27T10:48:55;100871.97;;;7.03;61.58
41264;BME280;26998;48.714;9.414;2024-01-27T10:51:30;100889.09;;;6.99;61.62
41264;BME280;26998;48.714;9.414;2024-01-27T10:54:02;100843.81;;;7.03;60.26
41264;BME280;26998;48.714;9.414;2024-01-27T10:56:31;100876.06;;;7.89;57.30
41264;BME280;26998;48.714;9.414;2024-01-27T10:59:07;100845.47;;;7.54;57.83
41264;BME280;26998;48.714;9.414;2024-01-27T11:01:40;100864.78;;;7.63;58.00
41264;BME280;26998;48.714;9.414;2024-01-27T11:04:13;100832.06;;;8.38;55.10
41264;BME280;26998;48.714;9.414;2024-01-27T11:06:42;100850.31;;;8.95;54.15
41264;BME280;26998;48.714;9.414;2024-01-27T11:09:11;100829.50;;;8.84;55.40
41264;BME280;26998;48.714;9.414;2024-01-27T11:11:40;100815.44;;;8.92;53.93
41264;BME280;26998;48.714;9.414;2024-01-27T11:14:09;100804.00;;;8.20;55.70
41264;BME280;26998;48.714;9.414;2024-01-27T11:16:37;100824.44;;;8.75;55.50
41264;BME280;26998;48.714;9.414;2024-01-27T11:19:11;100815.22;;;8.06;56.24
41264;BME280;26998;48.714;9.414;2024-01-27T11:21:39;100805.28;;;7.68;57.35
41264;BME280;26998;48.714;9.414;2024-01-27T11:24:16;100802.13;;;7.65;56.96
41264;BME280;26998;48.714;9.414;2024-01-27T11:26:45;100808.09;;;7.91;56.14
41264;BME280;26998;48.714;9.414;2024-01-27T11:29:12;100798.03;;;7.78;55.51
41264;BME280;26998;48.714;9.414;2024-01-27T11:31:48;100808.41;;;7.56;54.54
41264;BME280;26998;48.714;9.414;2024-01-27T11:34:18;100804.97;;;8.03;55.11
41264;BME280;26998;48.714;9.414;2024-01-27T11:36:48;100805.66;;;8.38;54.62
41264;BME280;26998;48.714;9.414;2024-01-27T11:41:52;100751.19;;;8.04;53.95
41264;BME280;26998;48.714;9.414;2024-01-27T11:44:21;100794.94;;;8.31;55.16
41264;BME280;26998;48.714;9.414;2024-01-27T11:46:49;100795.53;;;8.65;55.62
41264;BME280;26998;48.714;9.414;2024-01-27T11:49:16;100794.34;;;8.76;54.18
41264;BME280;26998;48.714;9.414;2024-01-27T11:51:46;100788.47;;;7.85;57.55
41264;BME280;26998;48.714;9.414;2024-01-27T11:54:20;100772.13;;;8.22;55.38
41264;BME280;26998;48.714;9.414;2024-01-27T11:56:47;100758.09;;;7.97;56.14
41264;BME280;26998;48.714;9.414;2024-01-27T11:59:16;100765.03;;;8.14;56.58
41264;BME280;26998;48.714;9.414;2024-01-27T12:01:43;100777.19;;;8.64;55.63
41264;BME280;26998;48.714;9.414;2024-01-27T12:04:12;100780.41;;;8.27;56.06
41264;BME280;26998;48.714;9.414;2024-01-27T12:06:43;100771.97;;;8.40;55.10
41264;BME280;26998;48.714;9.414;2024-01-27T12:09:12;100770.28;;;8.55;52.92
41264;BME280;26998;48.714;9.414;2024-01-27T12:11:40;100748.16;;;8.48;53.25
41264;BME280;26998;48.714;9.414;2024-01-27T12:14:07;100740.75;;;8.43;54.34
41264;BME280;26998;48.714;9.414;2024-01-27T12:16:38;100757.28;;;8.92;52.27
41264;BME280;26998;48.714;9.414;2024-01-27T12:19:05;100752.56;;;8.63;52.68
41264;BME280;26998;48.714;9.414;2024-01-27T12:21:35;100732.97;;;8.96;51.40
41264;BME280;26998;48.714;9.414;2024-01-27T12:24:03;100748.19;;;9.48;50.67
41264;BME280;26998;48.714;9.414;2024-01-27T12:26:32;100760.31;;;9.42;50.98
41264;BME280;26998;48.714;9.414;2024-01-27T12:29:00;100736.72;;;9.55;50.63
41264;BME280;26998;48.714;9.414;2024-01-27T12:31:27;100727.31;;;9.30;49.64
41264;BME280;26998;48.714;9.414;2024-01-27T12:33:56;100724.13;;;9.12;49.88
41264;BME280;26998;48.714;9.414;2024-01-27T12:36:27;100703.50;;;9.07;49.89
41264;BME280;26998;48.714;9.414;2024-01-27T12:39:04;100728.97;;;9.31;50.02
41264;BME280;26998;48.714;9.414;2024-01-27T12:41:32;100739.16;;;10.39;46.23
41264;BME280;26998;48.714;9.414;2024-01-27T12:44:02;100740.59;;;10.12;47.82
41264;BME280;26998;48.714;9.414;2024-01-27T12:46:30;100704.56;;;10.03;48.26
41264;BME280;26998;48.714;9.414;2024-01-27T12:48:58;100722.75;;;9.84;47.94
41264;BME280;26998;48.714;9.414;2024-01-27T12:51:26;100715.16;;;9.13;49.54
41264;BME280;26998;48.714;9.414;2024-01-27T12:53:53;100698.63;;;9.19;48.67
41264;BME280;26998;48.714;9.414;2024-01-27T12:56:21;100716.09;;;9.51;46.96
41264;BME280;26998;48.714;9.414;2024-01-27T12:58:48;100694.69;;;9.97;45.89
41264;BME280;26998;48.714;9.414;2024-01-27T13:01:15;100705.53;;;9.88;42.96
41264;BME280;26998;48.714;9.414;2024-01-27T13:03:43;100689.81;;;9.26;43.03